Time;durP1;ratioP1;P1;durP2;ratioP2;P2;SDS_P1;SDS_P2;PMS_P1;PMS_P2;Temp;Humidity;BMP_temperature;BMP_pressure;BME280_temperature;BME280_humidity;BME280_pressure;Samples;Min_cycle;Max_cycle;Signal;HPM_P1;HPM_P2
2022/03/06 00:00:34;;;;;;;22.92;13.02;;;29.50;76.70;;;;;;5082041;28;20104;-41
2022/03/06 00:03:02;;;;;;;19.98;13.27;;;29.50;76.60;;;;;;5084837;28;20043;-41
2022/03/06 00:05:32;;;;;;;20.55;14.02;;;29.50;76.70;;;;;;5091744;28;20056;-45
2022/03/06 00:07:59;;;;;;;18.98;13.95;;;29.50;76.60;;;;;;5088418;28;20090;-42
2022/03/06 00:10:26;;;;;;;22.48;13.65;;;29.50;76.50;;;;;;5082272;28;20020;-43
2022/03/06 00:12:53;;;;;;;19.92;13.07;;;29.50;76.40;;;;;;5091407;28;20040;-41
2022/03/06 00:15:22;;;;;;;16.80;12.90;;;29.50;76.50;;;;;;5079601;28;20041;-42
2022/03/06 00:17:49;;;;;;;16.27;12.52;;;29.40;76.60;;;;;;5065797;28;20215;-45
2022/03/06 00:20:16;;;;;;;16.75;12.77;;;29.40;76.40;;;;;;5065372;28;20217;-41
2022/03/06 00:22:43;;;;;;;17.83;13.52;;;29.30;76.50;;;;;;5065553;28;20052;-50
2022/03/06 00:25:10;;;;;;;20.63;12.45;;;29.30;76.50;;;;;;5074914;28;20284;-43
2022/03/06 00:27:36;;;;;;;20.35;12.95;;;29.30;76.30;;;;;;5065848;28;20029;-47
2022/03/06 00:30:06;;;;;;;20.40;13.30;;;29.30;76.20;;;;;;5065759;28;20046;-41
2022/03/06 00:32:32;;;;;;;19.58;13.60;;;29.30;76.40;;;;;;5071970;28;20212;-41
2022/03/06 00:34:59;;;;;;;16.38;13.52;;;29.30;76.30;;;;;;5081044;28;20319;-42
2022/03/06 00:37:25;;;;;;;18.38;13.15;;;29.30;76.00;;;;;;5085164;28;20304;-46
2022/03/06 00:39:52;;;;;;;20.50;14.15;;;29.30;76.10;;;;;;5076324;28;20029;-45
2022/03/06 00:42:20;;;;;;;21.95;14.23;;;29.20;76.10;;;;;;5074684;28;20088;-41
2022/03/06 00:44:46;;;;;;;21.23;13.98;;;29.20;76.00;;;;;;5085446;28;20029;-55
2022/03/06 00:47:13;;;;;;;21.63;14.20;;;29.20;76.10;;;;;;5084996;28;20181;-48
2022/03/06 00:49:39;;;;;;;18.08;14.27;;;29.20;76.20;;;;;;5082048;28;20134;-48
2022/03/06 00:52:06;;;;;;;19.33;14.10;;;29.20;76.20;;;;;;5078899;28;20026;-44
2022/03/06 00:54:34;;;;;;;20.40;14.13;;;29.10;76.50;;;;;;5063064;28;20029;-47
2022/03/06 00:57:00;;;;;;;18.30;13.32;;;29.10;76.10;;;;;;5076780;28;20039;-46
2022/03/06 00:59:33;;;;;;;20.83;14.55;;;29.10;76.00;;;;;;5084017;28;20020;-44
2022/03/06 01:02:01;;;;;;;17.13;13.93;;;29.10;76.00;;;;;;5084742;28;20031;-42
2022/03/06 01:04:27;;;;;;;19.77;14.32;;;29.10;75.90;;;;;;5084855;28;20087;-51
2022/03/06 01:06:54;;;;;;;23.42;13.68;;;29.10;75.80;;;;;;5083141;28;20052;-41
2022/03/06 01:09:21;;;;;;;19.63;14.27;;;29.10;75.80;;;;;;5083465;28;20043;-52
2022/03/06 01:11:47;;;;;;;18.40;13.68;;;29.10;76.00;;;;;;5072484;28;20016;-46
2022/03/06 01:14:14;;;;;;;23.48;15.10;;;29.10;76.30;;;;;;5090870;28;20323;-43
2022/03/06 01:16:40;;;;;;;16.40;13.73;;;29.00;75.90;;;;;;5088212;28;20036;-48
2022/03/06 01:19:07;;;;;;;21.27;13.68;;;29.00;75.90;;;;;;5084712;28;20085;-46
2022/03/06 01:21:33;;;;;;;19.02;14.65;;;29.10;76.00;;;;;;5084963;28;20036;-43
2022/03/06 01:24:00;;;;;;;23.38;15.88;;;29.00;76.50;;;;;;5084675;28;20031;-43
2022/03/06 01:26:27;;;;;;;20.88;16.48;;;29.00;76.20;;;;;;5085043;28;20031;-43
2022/03/06 01:28:53;;;;;;;17.30;15.23;;;29.00;76.10;;;;;;5084476;28;20209;-42
2022/03/06 01:31:22;;;;;;;21.80;15.00;;;29.00;76.00;;;;;;5084649;28;20047;-50
2022/03/06 01:33:49;;;;;;;25.75;14.93;;;29.00;76.00;;;;;;5083257;28;20105;-49
2022/03/06 01:36:15;;;;;;;16.23;14.25;;;29.00;75.90;;;;;;5084233;28;20095;-48
2022/03/06 01:38:42;;;;;;;18.60;14.35;;;29.00;75.80;;;;;;5083545;28;20023;-45
2022/03/06 01:41:09;;;;;;;20.50;14.48;;;29.00;75.60;;;;;;5084596;28;20141;-47
2022/03/06 01:43:36;;;;;;;17.98;14.35;;;29.00;75.40;;;;;;5084299;28;20246;-49
2022/03/06 01:46:03;;;;;;;23.33;14.23;;;28.90;75.60;;;;;;5084137;28;20367;-53
2022/03/06 01:48:30;;;;;;;18.05;14.38;;;29.00;75.40;;;;;;5084059;28;20044;-40
2022/03/06 01:50:56;;;;;;;19.75;13.52;;;29.00;75.60;;;;;;5084905;28;20021;-47
2022/03/06 01:53:23;;;;;;;18.33;13.88;;;29.00;75.70;;;;;;5084121;28;20372;-49
2022/03/06 01:55:50;;;;;;;18.45;13.02;;;28.90;75.30;;;;;;5083788;28;20028;-43
2022/03/06 01:58:16;;;;;;;17.73;14.15;;;28.90;75.40;;;;;;5084046;28;20032;-42
2022/03/06 02:00:47;;;;;;;22.10;14.45;;;28.90;75.60;;;;;;5083889;28;20024;-44
2022/03/06 02:03:14;;;;;;;19.13;12.93;;;28.90;75.40;;;;;;5083682;28;20056;-44
2022/03/06 02:05:42;;;;;;;15.02;13.15;;;28.90;75.30;;;;;;5084105;28;20444;-41
2022/03/06 02:08:09;;;;;;;18.77;13.50;;;28.90;75.30;;;;;;5084053;28;20091;-47
2022/03/06 02:10:36;;;;;;;20.08;13.95;;;28.90;75.30;;;;;;5084042;28;20029;-43
2022/03/06 02:13:04;;;;;;;24.20;14.70;;;28.80;75.10;;;;;;5083947;28;20208;-44
2022/03/06 02:15:31;;;;;;;17.45;13.55;;;28.90;75.30;;;;;;5083909;28;20043;-42
2022/03/06 02:17:58;;;;;;;18.20;13.30;;;28.90;75.30;;;;;;5078300;28;20022;-42
2022/03/06 02:20:26;;;;;;;16.95;13.35;;;28.90;75.20;;;;;;5074473;28;20028;-42
2022/03/06 02:22:57;;;;;;;16.23;13.98;;;28.90;75.30;;;;;;5073041;28;20032;-47
2022/03/06 02:25:32;;;;;;;17.35;14.40;;;28.90;75.40;;;;;;5072487;28;20048;-43
2022/03/06 02:28:01;;;;;;;20.52;14.18;;;28.90;75.00;;;;;;5072884;28;20212;-43
2022/03/06 02:30:30;;;;;;;17.92;13.90;;;28.90;75.10;;;;;;5072191;28;20035;-49
2022/03/06 02:32:59;;;;;;;19.05;13.30;;;28.80;75.10;;;;;;5072950;28;20025;-46
2022/03/06 02:35:26;;;;;;;16.67;13.52;;;28.80;75.10;;;;;;5074501;28;20020;-43
2022/03/06 02:37:53;;;;;;;15.32;13.68;;;28.80;75.10;;;;;;5072977;28;20234;-45
2022/03/06 02:40:21;;;;;;;16.98;13.43;;;28.80;74.90;;;;;;5072726;28;20104;-44
2022/03/06 02:42:51;;;;;;;15.57;13.65;;;28.80;74.90;;;;;;5068806;28;20049;-41
2022/03/06 02:45:21;;;;;;;17.02;13.98;;;28.80;75.20;;;;;;5063670;28;20316;-42
2022/03/06 02:47:49;;;;;;;20.52;14.35;;;28.80;75.40;;;;;;5072731;28;20121;-45
2022/03/06 02:50:20;;;;;;;18.88;13.65;;;28.80;75.80;;;;;;5074299;28;20039;-45
2022/03/06 02:52:46;;;;;;;19.25;15.23;;;28.80;75.60;;;;;;5072910;28;20554;-44
2022/03/06 02:55:14;;;;;;;22.83;18.90;;;28.80;75.90;;;;;;5072439;28;20200;-44
2022/03/06 02:57:41;;;;;;;31.13;19.70;;;28.80;75.70;;;;;;5072347;28;20090;-45
2022/03/06 03:00:10;;;;;;;28.00;19.70;;;28.80;75.40;;;;;;5072498;28;20216;-47
2022/03/06 03:02:38;;;;;;;20.80;17.75;;;28.80;75.70;;;;;;5073934;28;20020;-52
2022/03/06 03:05:11;;;;;;;23.40;18.40;;;28.80;75.70;;;;;;5068491;28;20045;-42
2022/03/06 03:07:40;;;;;;;28.77;20.95;;;28.80;75.40;;;;;;5087719;28;20044;-42
2022/03/06 03:10:09;;;;;;;23.23;17.45;;;28.80;75.90;;;;;;5103038;28;20031;-48
2022/03/06 03:12:36;;;;;;;18.15;15.98;;;28.80;75.80;;;;;;5103687;28;20031;-44
2022/03/06 03:15:05;;;;;;;18.02;13.90;;;28.80;75.70;;;;;;5103341;28;20020;-49
2022/03/06 03:17:32;;;;;;;24.83;13.55;;;28.80;75.80;;;;;;5103588;28;20054;-42
2022/03/06 03:19:58;;;;;;;18.83;12.73;;;28.80;75.70;;;;;;5103376;28;20024;-42
2022/03/06 03:22:25;;;;;;;16.02;12.77;;;28.70;74.80;;;;;;5095691;28;20036;-48
2022/03/06 03:24:52;;;;;;;19.50;12.73;;;28.70;75.10;;;;;;5096262;28;20017;-45
2022/03/06 03:27:18;;;;;;;18.52;12.75;;;28.70;75.40;;;;;;5082938;28;20074;-49
2022/03/06 03:29:45;;;;;;;16.33;12.55;;;28.70;75.40;;;;;;5075074;28;20029;-46
2022/03/06 03:32:11;;;;;;;17.55;12.55;;;28.70;75.00;;;;;;5086723;28;20028;-45
2022/03/06 03:34:38;;;;;;;15.75;12.18;;;28.70;75.30;;;;;;5086845;28;20031;-42
2022/03/06 03:37:05;;;;;;;19.38;11.20;;;28.70;74.70;;;;;;5087215;28;20335;-41
2022/03/06 03:39:31;;;;;;;18.67;11.90;;;28.70;74.40;;;;;;5069040;28;20312;-41
2022/03/06 03:42:01;;;;;;;20.45;12.18;;;28.70;74.50;;;;;;5086746;28;20032;-41
2022/03/06 03:44:29;;;;;;;18.02;12.57;;;28.70;74.90;;;;;;5083522;28;20043;-50
2022/03/06 03:46:56;;;;;;;13.63;11.90;;;28.70;75.00;;;;;;5080632;28;20085;-43
2022/03/06 03:49:22;;;;;;;20.50;12.77;;;28.70;75.20;;;;;;5083798;28;20215;-44
2022/03/06 03:51:49;;;;;;;18.70;12.13;;;28.70;75.10;;;;;;5076867;28;20128;-43
2022/03/06 03:54:17;;;;;;;19.33;12.32;;;28.70;75.10;;;;;;5074925;28;20024;-48
2022/03/06 03:56:43;;;;;;;19.55;12.15;;;28.70;75.70;;;;;;5066421;28;20051;-45
2022/03/06 03:59:13;;;;;;;14.63;12.00;;;28.70;75.80;;;;;;5074832;28;20024;-43
2022/03/06 04:01:39;;;;;;;16.63;12.15;;;28.60;75.60;;;;;;5059992;28;20029;-45
2022/03/06 04:04:06;;;;;;;13.68;11.43;;;28.60;75.20;;;;;;5085933;28;20039;-49
2022/03/06 04:06:33;;;;;;;17.60;10.75;;;28.60;75.20;;;;;;5086959;28;20032;-44
2022/03/06 04:08:59;;;;;;;12.45;10.68;;;28.60;74.50;;;;;;5086081;28;20032;-42
2022/03/06 04:11:26;;;;;;;12.27;10.52;;;28.60;74.40;;;;;;5086546;28;20016;-44
2022/03/06 04:13:53;;;;;;;13.55;10.77;;;28.60;74.20;;;;;;5077802;28;20044;-42
2022/03/06 04:16:19;;;;;;;12.38;11.07;;;28.60;74.40;;;;;;5074749;28;20013;-44
2022/03/06 04:18:46;;;;;;;14.23;11.20;;;28.60;74.50;;;;;;5076277;28;20033;-41
2022/03/06 04:21:12;;;;;;;12.45;10.77;;;28.60;74.70;;;;;;5071532;28;20053;-42
2022/03/06 04:23:39;;;;;;;15.38;12.10;;;28.60;75.20;;;;;;5065803;28;20021;-45
2022/03/06 04:26:05;;;;;;;14.18;12.57;;;28.60;75.00;;;;;;5065526;28;20040;-43
2022/03/06 04:28:32;;;;;;;15.68;12.05;;;28.60;74.90;;;;;;5065852;28;20088;-42
2022/03/06 04:30:58;;;;;;;16.92;11.93;;;28.60;75.00;;;;;;5065670;28;20112;-41
2022/03/06 04:33:25;;;;;;;14.88;12.07;;;28.60;75.40;;;;;;5065129;28;20025;-46
2022/03/06 04:35:58;;;;;;;13.50;11.95;;;28.60;75.20;;;;;;5065093;28;20021;-49
2022/03/06 04:38:24;;;;;;;12.48;11.15;;;28.60;75.30;;;;;;5048971;28;20029;-44
2022/03/06 04:40:51;;;;;;;15.15;10.82;;;28.60;75.50;;;;;;5065935;28;20024;-41
2022/03/06 04:43:18;;;;;;;13.65;11.60;;;28.60;75.50;;;;;;5065348;28;20055;-42
2022/03/06 04:45:45;;;;;;;14.85;12.05;;;28.60;75.40;;;;;;5065741;28;20036;-44
2022/03/06 04:48:11;;;;;;;25.70;12.60;;;28.60;75.40;;;;;;5065386;28;20044;-41
2022/03/06 04:50:38;;;;;;;18.48;12.68;;;28.60;75.90;;;;;;5065471;28;20032;-42
2022/03/06 04:53:04;;;;;;;14.85;11.63;;;28.60;76.00;;;;;;5065183;28;20048;-46
2022/03/06 04:55:31;;;;;;;14.65;12.95;;;28.60;76.20;;;;;;5065451;28;20256;-44
2022/03/06 04:57:58;;;;;;;20.17;12.98;;;28.60;76.50;;;;;;5064986;28;20025;-41
2022/03/06 05:00:24;;;;;;;14.75;11.90;;;28.60;76.70;;;;;;5064877;28;20017;-40
2022/03/06 05:02:51;;;;;;;18.70;13.07;;;28.60;76.80;;;;;;5047245;28;20043;-42
2022/03/06 05:05:21;;;;;;;22.63;12.82;;;28.60;76.90;;;;;;5064834;28;20052;-44
2022/03/06 05:07:47;;;;;;;17.77;12.23;;;28.60;76.90;;;;;;5065057;28;20039;-40
2022/03/06 05:10:14;;;;;;;16.77;12.57;;;28.60;76.90;;;;;;5065033;28;20285;-41
2022/03/06 05:12:42;;;;;;;14.15;12.30;;;28.60;77.40;;;;;;5064954;28;20028;-42
2022/03/06 05:15:11;;;;;;;18.23;13.10;;;28.60;77.30;;;;;;5064971;28;20037;-42
2022/03/06 05:17:41;;;;;;;15.50;12.55;;;28.60;77.10;;;;;;5064883;28;20088;-41
2022/03/06 05:20:10;;;;;;;14.90;12.32;;;28.60;77.10;;;;;;5065077;28;20033;-46
2022/03/06 05:22:37;;;;;;;15.18;12.77;;;28.60;77.10;;;;;;5064957;28;20091;-43
2022/03/06 05:25:05;;;;;;;15.70;12.70;;;28.60;77.30;;;;;;5064548;28;20256;-43
2022/03/06 05:27:32;;;;;;;13.48;12.07;;;28.60;77.10;;;;;;5065016;28;20041;-42
2022/03/06 05:29:59;;;;;;;13.65;12.13;;;28.60;77.10;;;;;;5064648;28;20067;-51
2022/03/06 05:32:25;;;;;;;15.88;12.32;;;28.60;77.00;;;;;;5064659;28;20012;-42
2022/03/06 05:34:52;;;;;;;17.83;12.18;;;28.60;77.20;;;;;;5064563;28;20033;-42
2022/03/06 05:37:19;;;;;;;14.60;12.13;;;28.60;76.80;;;;;;5064592;28;20084;-48
2022/03/06 05:39:45;;;;;;;14.90;12.48;;;28.60;76.80;;;;;;5064568;28;20016;-42
2022/03/06 05:42:12;;;;;;;15.95;12.02;;;28.60;76.70;;;;;;5064266;28;20040;-47
2022/03/06 05:44:38;;;;;;;17.55;12.18;;;28.60;76.60;;;;;;5064265;28;20052;-40
2022/03/06 05:47:05;;;;;;;17.70;11.77;;;28.60;76.40;;;;;;5064380;28;20339;-41
2022/03/06 05:49:32;;;;;;;14.18;11.50;;;28.60;76.20;;;;;;5064140;28;20033;-40
2022/03/06 05:51:58;;;;;;;14.60;12.35;;;28.60;75.90;;;;;;5064186;28;20017;-41
2022/03/06 05:54:25;;;;;;;14.23;12.07;;;28.60;75.90;;;;;;5063857;28;20021;-45
2022/03/06 05:56:52;;;;;;;15.52;11.70;;;28.60;75.90;;;;;;5064008;28;20039;-43
2022/03/06 05:59:18;;;;;;;14.98;11.15;;;28.60;75.70;;;;;;5064109;28;20033;-46
2022/03/06 06:01:45;;;;;;;15.25;11.25;;;28.60;75.70;;;;;;5064095;28;20304;-43
2022/03/06 06:04:12;;;;;;;16.67;11.48;;;28.60;75.40;;;;;;5063716;28;20033;-41
2022/03/06 06:06:39;;;;;;;13.98;10.80;;;28.60;75.30;;;;;;5079358;28;20062;-41
2022/03/06 06:09:06;;;;;;;16.02;11.10;;;28.60;75.60;;;;;;5087233;28;20044;-49
2022/03/06 06:11:33;;;;;;;14.98;11.00;;;28.60;75.40;;;;;;5070590;28;20060;-40
2022/03/06 06:13:59;;;;;;;12.18;10.80;;;28.60;75.50;;;;;;5063847;28;20021;-41
2022/03/06 06:16:26;;;;;;;13.90;10.68;;;28.60;75.30;;;;;;5074484;28;20028;-40
2022/03/06 06:18:53;;;;;;;11.52;10.43;;;28.60;75.00;;;;;;5064007;28;20039;-41
2022/03/06 06:21:19;;;;;;;14.32;10.88;;;28.60;75.10;;;;;;5064318;28;20120;-48
2022/03/06 06:23:46;;;;;;;12.63;10.57;;;28.60;74.80;;;;;;5064131;28;20033;-40
2022/03/06 06:26:13;;;;;;;11.93;10.40;;;28.60;75.10;;;;;;5063749;28;20347;-40
2022/03/06 06:28:39;;;;;;;13.15;10.05;;;28.60;74.90;;;;;;5064052;28;20055;-40
2022/03/06 06:31:06;;;;;;;11.98;10.45;;;28.60;74.90;;;;;;5064180;28;20025;-45
2022/03/06 06:33:34;;;;;;;12.18;10.80;;;28.60;74.90;;;;;;5063736;28;20043;-51
2022/03/06 06:36:01;;;;;;;12.55;10.15;;;28.60;75.10;;;;;;5064376;28;20044;-41
2022/03/06 06:38:28;;;;;;;12.68;9.95;;;28.50;75.40;;;;;;5063555;28;20037;-40
2022/03/06 06:40:55;;;;;;;13.68;10.40;;;28.50;75.30;;;;;;5063814;28;20029;-40
2022/03/06 06:43:22;;;;;;;11.88;10.02;;;28.50;75.60;;;;;;5063912;28;20036;-40
2022/03/06 06:45:49;;;;;;;12.30;10.48;;;28.50;75.00;;;;;;5063936;28;20025;-48
2022/03/06 06:48:16;;;;;;;11.50;10.27;;;28.50;75.30;;;;;;5063340;28;20025;-44
2022/03/06 06:50:42;;;;;;;12.05;10.02;;;28.50;75.50;;;;;;5063844;28;20028;-42
2022/03/06 06:53:09;;;;;;;11.63;10.38;;;28.50;75.20;;;;;;5063424;28;20033;-42
2022/03/06 06:55:36;;;;;;;14.32;10.05;;;28.50;75.60;;;;;;5063312;28;20021;-40
2022/03/06 06:58:04;;;;;;;14.40;10.57;;;28.50;75.70;;;;;;5064427;28;20087;-39
2022/03/06 07:00:31;;;;;;;10.73;9.48;;;28.50;75.30;;;;;;5081416;28;20074;-40
2022/03/06 07:02:58;;;;;;;14.80;10.32;;;28.50;75.30;;;;;;5083321;28;20039;-38
2022/03/06 07:05:24;;;;;;;13.55;10.35;;;28.50;75.40;;;;;;5084005;28;20056;-43
2022/03/06 07:07:53;;;;;;;11.43;10.23;;;28.50;75.00;;;;;;5087093;28;20035;-42
2022/03/06 07:10:20;;;;;;;13.85;9.70;;;28.50;75.00;;;;;;5087321;28;20094;-40
2022/03/06 07:12:53;;;;;;;11.05;9.77;;;28.50;75.00;;;;;;5087322;28;20037;-41
2022/03/06 07:15:20;;;;;;;11.65;9.95;;;28.50;74.80;;;;;;5087482;28;20020;-41
2022/03/06 07:17:46;;;;;;;13.80;10.30;;;28.50;74.90;;;;;;5087175;28;20043;-43
2022/03/06 07:20:13;;;;;;;11.35;10.15;;;28.50;74.90;;;;;;5087297;28;20051;-41
2022/03/06 07:22:40;;;;;;;13.63;9.95;;;28.50;74.90;;;;;;5087210;28;20119;-43
2022/03/06 07:25:07;;;;;;;11.07;9.80;;;28.50;74.90;;;;;;5087024;28;20029;-42
2022/03/06 07:27:34;;;;;;;13.95;10.52;;;28.40;75.60;;;;;;5086906;28;20316;-41
2022/03/06 07:30:00;;;;;;;11.95;10.13;;;28.40;75.10;;;;;;5087094;28;20305;-42
2022/03/06 07:32:27;;;;;;;11.25;9.82;;;28.40;75.20;;;;;;5086780;28;20016;-45
2022/03/06 07:34:53;;;;;;;14.15;10.27;;;28.40;75.00;;;;;;5087078;28;20272;-44
2022/03/06 07:37:20;;;;;;;14.18;10.13;;;28.40;74.90;;;;;;5086853;28;20358;-41
2022/03/06 07:39:46;;;;;;;15.25;10.30;;;28.40;75.00;;;;;;5086706;28;20036;-40
2022/03/06 07:42:13;;;;;;;13.80;10.43;;;28.40;74.90;;;;;;5086770;28;20086;-44
2022/03/06 07:44:40;;;;;;;11.60;9.70;;;28.40;75.10;;;;;;5086709;28;20016;-39
2022/03/06 07:47:07;;;;;;;12.70;9.90;;;28.40;75.00;;;;;;5086537;28;20032;-41
2022/03/06 07:49:33;;;;;;;13.43;10.07;;;28.40;75.10;;;;;;5086466;28;20040;-44
2022/03/06 07:52:00;;;;;;;11.80;9.88;;;28.40;74.90;;;;;;5086803;28;20029;-45
2022/03/06 07:54:26;;;;;;;11.68;9.57;;;28.40;74.90;;;;;;5086527;28;20024;-43
2022/03/06 07:56:53;;;;;;;10.52;9.43;;;28.40;75.10;;;;;;5086546;28;20020;-40
2022/03/06 07:59:21;;;;;;;13.10;10.27;;;28.40;75.20;;;;;;5086614;28;20036;-42
2022/03/06 08:01:48;;;;;;;15.07;10.02;;;28.40;75.20;;;;;;5086285;28;20052;-40
2022/03/06 08:04:14;;;;;;;11.32;9.48;;;28.40;75.30;;;;;;5085985;28;20032;-42
2022/03/06 08:06:41;;;;;;;14.27;9.77;;;28.40;75.60;;;;;;5086498;28;20036;-41
2022/03/06 08:09:07;;;;;;;13.32;9.88;;;28.40;75.20;;;;;;5086186;28;20076;-41
2022/03/06 08:11:34;;;;;;;12.50;9.43;;;28.40;75.30;;;;;;5086034;28;20071;-40
2022/03/06 08:14:00;;;;;;;10.07;9.05;;;28.40;75.60;;;;;;5086202;28;20032;-40
2022/03/06 08:16:27;;;;;;;13.52;9.55;;;28.40;75.70;;;;;;5086191;28;20309;-41
2022/03/06 08:18:53;;;;;;;11.20;10.00;;;28.40;75.80;;;;;;5085869;28;20348;-44
2022/03/06 08:21:20;;;;;;;12.02;9.80;;;28.40;76.20;;;;;;5086460;28;20030;-45
2022/03/06 08:23:46;;;;;;;12.07;10.40;;;28.40;76.10;;;;;;5086004;28;20084;-42
2022/03/06 08:26:13;;;;;;;11.57;9.88;;;28.40;76.20;;;;;;5086239;28;20339;-43
2022/03/06 08:28:39;;;;;;;11.50;10.40;;;28.30;76.20;;;;;;5085794;28;20032;-41
2022/03/06 08:31:06;;;;;;;13.60;10.65;;;28.30;76.50;;;;;;5086439;28;20036;-45
2022/03/06 08:33:32;;;;;;;14.65;10.43;;;28.40;76.90;;;;;;5085837;28;20021;-45
2022/03/06 08:35:59;;;;;;;14.57;10.43;;;28.30;76.70;;;;;;5085993;28;20028;-45
2022/03/06 08:38:25;;;;;;;12.35;10.40;;;28.30;76.80;;;;;;5085914;28;20043;-45
2022/03/06 08:40:52;;;;;;;17.35;10.38;;;28.30;77.00;;;;;;5084921;28;20024;-41
2022/03/06 08:43:18;;;;;;;12.98;10.20;;;28.30;77.00;;;;;;5085675;28;20048;-46
2022/03/06 08:45:45;;;;;;;12.27;9.85;;;28.30;77.00;;;;;;5085963;28;20016;-40
2022/03/06 08:48:12;;;;;;;13.40;10.68;;;28.30;76.90;;;;;;5085364;28;20100;-41
2022/03/06 08:50:38;;;;;;;16.55;10.68;;;28.30;76.90;;;;;;5086064;28;20102;-41
2022/03/06 08:53:06;;;;;;;16.50;10.57;;;28.30;77.50;;;;;;5085217;28;20029;-44
2022/03/06 08:55:33;;;;;;;12.80;10.68;;;28.30;77.10;;;;;;5085465;28;20024;-39
2022/03/06 08:57:59;;;;;;;13.38;10.50;;;28.30;77.00;;;;;;5085097;28;20364;-44
2022/03/06 09:00:26;;;;;;;14.93;10.73;;;28.30;77.10;;;;;;5085244;28;20029;-39
2022/03/06 09:02:53;;;;;;;13.45;9.80;;;28.30;77.00;;;;;;5085279;28;20213;-43
2022/03/06 09:05:20;;;;;;;16.27;9.75;;;28.30;77.00;;;;;;5084885;28;20060;-40
2022/03/06 09:07:47;;;;;;;14.38;10.38;;;28.30;77.10;;;;;;5085176;28;20024;-40
2022/03/06 09:10:14;;;;;;;13.35;10.20;;;28.30;77.00;;;;;;5085188;28;20032;-43
2022/03/06 09:12:40;;;;;;;13.23;10.20;;;28.30;77.10;;;;;;5084453;28;20039;-41
2022/03/06 09:15:08;;;;;;;16.90;10.15;;;28.20;77.10;;;;;;5093419;28;20095;-42
2022/03/06 09:17:35;;;;;;;11.95;10.27;;;28.30;77.10;;;;;;5105154;28;20028;-45
2022/03/06 09:20:03;;;;;;;13.80;9.95;;;28.20;77.20;;;;;;5098330;28;20027;-44
2022/03/06 09:22:30;;;;;;;11.98;9.73;;;28.30;77.30;;;;;;5105544;28;20012;-40
2022/03/06 09:24:56;;;;;;;12.55;9.23;;;28.20;77.30;;;;;;5102537;28;20032;-40
2022/03/06 09:27:24;;;;;;;15.00;10.15;;;28.30;77.20;;;;;;5084437;28;20043;-51
2022/03/06 09:29:51;;;;;;;12.25;9.40;;;28.20;77.00;;;;;;5083758;28;20208;-41
2022/03/06 09:32:17;;;;;;;11.88;9.57;;;28.30;77.00;;;;;;5072700;28;20024;-43
2022/03/06 09:34:44;;;;;;;14.18;9.55;;;28.20;76.70;;;;;;5084508;28;20016;-39
2022/03/06 09:37:10;;;;;;;10.85;9.35;;;28.20;76.60;;;;;;5084837;28;20056;-40
2022/03/06 09:39:37;;;;;;;13.82;9.68;;;28.30;76.60;;;;;;5084521;28;20024;-40
2022/03/06 09:42:04;;;;;;;14.32;9.35;;;28.20;76.50;;;;;;5084301;28;20032;-41
2022/03/06 09:44:32;;;;;;;12.77;9.60;;;28.30;76.40;;;;;;5084512;28;20294;-43
2022/03/06 09:46:58;;;;;;;11.52;9.32;;;28.20;76.30;;;;;;5084180;28;20047;-50
2022/03/06 09:49:25;;;;;;;12.77;9.43;;;28.30;76.50;;;;;;5084056;28;20331;-45
2022/03/06 09:51:54;;;;;;;13.23;9.27;;;28.20;76.50;;;;;;5084421;28;20036;-45
2022/03/06 09:54:21;;;;;;;14.07;9.57;;;28.20;76.70;;;;;;5084152;28;20047;-42
2022/03/06 09:56:47;;;;;;;10.27;9.20;;;28.20;76.60;;;;;;5084018;28;20051;-43
2022/03/06 09:59:14;;;;;;;11.07;8.65;;;28.20;76.60;;;;;;5084051;28;20085;-40
2022/03/06 10:01:40;;;;;;;13.50;9.30;;;28.20;76.50;;;;;;5083626;28;20267;-41
2022/03/06 10:04:23;;;;;;;16.65;9.65;;;28.20;76.40;;;;;;5084140;28;20342;-43
2022/03/06 10:07:11;;;;;;;11.55;9.95;;;28.20;76.40;;;;;;5084011;28;20320;-41
2022/03/06 10:09:50;;;;;;;18.05;9.63;;;28.20;76.50;;;;;;5084046;28;20099;-41
2022/03/06 10:12:20;;;;;;;13.35;9.48;;;28.20;76.40;;;;;;5084052;28;20024;-42
2022/03/06 10:14:48;;;;;;;12.40;9.77;;;28.20;76.30;;;;;;5083879;28;20212;-48
2022/03/06 10:17:24;;;;;;;11.55;9.60;;;28.20;76.20;;;;;;5083778;28;20378;-50
2022/03/06 10:20:05;;;;;;;9.80;8.80;;;28.20;76.10;;;;;;5083935;28;20038;-49
2022/03/06 10:22:38;;;;;;;14.77;9.40;;;28.20;76.70;;;;;;5083788;28;20234;-47
2022/03/06 10:25:10;;;;;;;11.65;9.20;;;28.20;76.40;;;;;;5083942;28;20039;-49
2022/03/06 10:27:44;;;;;;;14.55;9.05;;;28.20;76.40;;;;;;5083967;28;20098;-49
2022/03/06 10:30:30;;;;;;;12.88;9.40;;;28.20;76.40;;;;;;5083807;28;20267;-49
2022/03/06 10:32:59;;;;;;;13.48;9.43;;;28.20;76.50;;;;;;5083589;28;20036;-46
2022/03/06 10:35:31;;;;;;;14.88;9.55;;;28.20;76.60;;;;;;5084033;28;20032;-44
2022/03/06 10:37:58;;;;;;;15.40;10.05;;;28.20;76.70;;;;;;5083681;28;20036;-41
2022/03/06 10:40:46;;;;;;;18.17;9.75;;;28.10;76.70;;;;;;5086070;28;20035;-38
2022/03/06 10:43:21;;;;;;;14.55;9.13;;;28.20;76.80;;;;;;5087735;28;20036;-38
2022/03/06 10:45:49;;;;;;;12.13;9.48;;;28.20;76.90;;;;;;5088085;28;20308;-39
2022/03/06 10:48:16;;;;;;;16.00;9.85;;;28.20;77.00;;;;;;5087518;28;20044;-45
2022/03/06 10:50:43;;;;;;;12.43;9.90;;;28.20;77.00;;;;;;5088021;28;20086;-44
2022/03/06 10:53:24;;;;;;;12.98;9.57;;;28.10;77.00;;;;;;5087803;28;20087;-41
2022/03/06 10:55:52;;;;;;;17.70;9.50;;;28.10;77.10;;;;;;5087743;28;20035;-43
2022/03/06 10:58:20;;;;;;;16.75;10.10;;;28.10;77.40;;;;;;5087564;28;20303;-42
2022/03/06 11:00:48;;;;;;;16.13;9.98;;;28.10;77.30;;;;;;5086821;28;20036;-40
2022/03/06 11:03:15;;;;;;;18.08;10.40;;;28.10;77.10;;;;;;5087552;28;20397;-42
2022/03/06 11:05:44;;;;;;;13.15;9.65;;;28.10;77.30;;;;;;5087406;28;20131;-39
2022/03/06 11:08:15;;;;;;;13.45;9.85;;;28.10;77.10;;;;;;5087112;28;20033;-48
2022/03/06 11:10:43;;;;;;;16.05;9.20;;;28.10;77.10;;;;;;5087249;28;20035;-48
2022/03/06 11:13:14;;;;;;;13.90;9.43;;;28.10;77.00;;;;;;5087221;28;20040;-40
2022/03/06 11:15:42;;;;;;;15.93;10.13;;;28.10;77.00;;;;;;5087267;28;20019;-44
2022/03/06 11:18:09;;;;;;;15.60;9.35;;;28.10;77.10;;;;;;5087046;28;20032;-40
2022/03/06 11:20:38;;;;;;;15.23;10.25;;;28.10;77.40;;;;;;5087982;28;20032;-40
2022/03/06 11:23:38;;;;;;;16.30;9.98;;;28.10;77.10;;;;;;5098013;28;20036;-43
2022/03/06 11:26:14;;;;;;;15.02;9.80;;;28.10;77.20;;;;;;5082832;28;20208;-45
2022/03/06 11:28:53;;;;;;;11.85;9.77;;;28.10;77.30;;;;;;5087173;28;20028;-43
2022/03/06 11:31:21;;;;;;;12.73;9.65;;;28.10;77.30;;;;;;5087437;28;20028;-41
2022/03/06 11:33:57;;;;;;;13.77;10.15;;;28.10;77.50;;;;;;5086863;28;20085;-41
2022/03/06 11:36:27;;;;;;;14.93;9.75;;;28.10;77.70;;;;;;5087298;28;20024;-42
2022/03/06 11:38:54;;;;;;;13.23;9.98;;;28.10;77.90;;;;;;5086667;28;20104;-45
2022/03/06 11:41:24;;;;;;;16.02;10.45;;;28.10;78.00;;;;;;5087214;28;20031;-41
2022/03/06 11:43:51;;;;;;;13.60;10.60;;;28.10;78.40;;;;;;5086772;28;20063;-41
2022/03/06 11:46:23;;;;;;;14.88;10.98;;;28.00;79.00;;;;;;5086998;28;20020;-43
2022/03/06 11:48:50;;;;;;;14.73;11.35;;;28.00;78.90;;;;;;5086544;28;20201;-40
2022/03/06 11:51:26;;;;;;;13.68;10.38;;;27.90;79.10;;;;;;5086291;28;20246;-41
2022/03/06 11:54:07;;;;;;;16.80;11.35;;;27.90;79.30;;;;;;5086418;28;20273;-44
2022/03/06 11:56:35;;;;;;;13.57;11.05;;;27.90;79.70;;;;;;5086329;28;20016;-40
2022/03/06 11:59:27;;;;;;;15.15;11.93;;;27.90;79.90;;;;;;5086400;28;20041;-44
2022/03/06 12:02:01;;;;;;;14.10;11.88;;;27.90;80.00;;;;;;5086535;28;20051;-44
2022/03/06 12:04:33;;;;;;;19.58;11.63;;;27.80;80.00;;;;;;5086067;28;20037;-40
2022/03/06 12:07:03;;;;;;;16.73;11.85;;;27.80;80.30;;;;;;5086251;28;20033;-40
2022/03/06 12:09:36;;;;;;;14.98;11.65;;;27.80;80.50;;;;;;5086239;28;20143;-44
2022/03/06 12:12:08;;;;;;;15.50;12.20;;;27.80;80.50;;;;;;5086390;28;20079;-45
2022/03/06 12:14:52;;;;;;;15.05;12.32;;;27.80;81.00;;;;;;5085987;28;20315;-41
2022/03/06 12:17:26;;;;;;;15.75;12.45;;;27.80;81.10;;;;;;5086169;28;20088;-42
2022/03/06 12:19:53;;;;;;;15.35;11.80;;;27.70;81.40;;;;;;5085928;28;20058;-42
2022/03/06 12:22:35;;;;;;;14.30;12.57;;;27.80;81.80;;;;;;5086046;28;20024;-47
2022/03/06 12:25:04;;;;;;;14.50;12.32;;;27.80;81.90;;;;;;5085361;28;20060;-45
2022/03/06 12:27:32;;;;;;;14.80;12.98;;;27.70;82.10;;;;;;5085832;28;20225;-41
2022/03/06 12:30:00;;;;;;;19.10;14.05;;;27.70;82.40;;;;;;5085921;28;20376;-44
2022/03/06 12:32:31;;;;;;;17.65;13.18;;;27.70;82.70;;;;;;5085531;28;20089;-46